Time;durP1;ratioP1;P1;durP2;ratioP2;P2;SDS_P1;SDS_P2;PMS_P1;PMS_P2;Temp;Humidity;BMP_temperature;BMP_pressure;BME280_temperature;BME280_humidity;BME280_pressure;Samples;Min_cycle;Max_cycle;Signal;HPM_P1;HPM_P2
2021/10/01 00:01:32;;;;;;;;;;;22.60;57.60;;;;;;5057824;28;19924;-60
2021/10/01 00:03:59;;;;;;;;;;;22.60;57.60;;;;;;5057233;28;19924;-59
2021/10/01 00:06:26;;;;;;;;;;;22.60;57.60;;;;;;5054066;28;20373;-60
2021/10/01 00:08:53;;;;;;;;;;;22.60;57.60;;;;;;5054733;28;19994;-58
2021/10/01 00:11:21;;;;;;;;;;;22.60;57.60;;;;;;5055100;28;19925;-60
2021/10/01 00:13:48;;;;;;;;;;;22.60;57.60;;;;;;5069816;28;20377;-60
2021/10/01 00:16:16;;;;;;;;;;;22.60;57.60;;;;;;5061782;28;19925;-60
2021/10/01 00:18:43;;;;;;;;;;;22.60;57.60;;;;;;5075262;28;19935;-59
2021/10/01 00:21:10;;;;;;;;;;;22.60;57.60;;;;;;5073393;28;19929;-61
2021/10/01 00:23:37;;;;;;;;;;;22.60;57.60;;;;;;5062116;28;19925;-59
2021/10/01 00:26:05;;;;;;;;;;;22.60;57.60;;;;;;5067972;28;19929;-59
2021/10/01 00:28:32;;;;;;;;;;;22.60;57.60;;;;;;5056132;28;19977;-60
2021/10/01 00:31:00;;;;;;;;;;;22.60;57.60;;;;;;5055868;28;19959;-60
2021/10/01 00:33:27;;;;;;;;;;;22.60;57.60;;;;;;5054119;28;19924;-60
2021/10/01 00:35:54;;;;;;;;;;;22.60;57.60;;;;;;5071354;28;20032;-58
2021/10/01 00:38:21;;;;;;;;;;;22.60;57.60;;;;;;5087381;28;20436;-60
2021/10/01 00:40:47;;;;;;;;;;;22.60;57.60;;;;;;5059538;28;19975;-59
2021/10/01 00:43:14;;;;;;;;;;;22.60;57.60;;;;;;5080406;28;19928;-60
2021/10/01 00:45:41;;;;;;;;;;;22.60;57.60;;;;;;5072107;28;19925;-59
2021/10/01 00:48:08;;;;;;;;;;;22.60;57.60;;;;;;5064220;28;19925;-59
2021/10/01 00:50:35;;;;;;;;;;;22.60;57.60;;;;;;5061191;28;19929;-60
2021/10/01 00:53:02;;;;;;;;;;;22.60;57.60;;;;;;5075180;28;19947;-59
2021/10/01 00:55:29;;;;;;;;;;;22.60;57.60;;;;;;5075900;28;20364;-59
2021/10/01 00:57:57;;;;;;;;;;;22.60;57.60;;;;;;5091733;28;19928;-59
2021/10/01 01:00:27;;;;;;;;;;;22.60;57.60;;;;;;5074314;28;19929;-59
2021/10/01 01:02:57;;;;;;;;;;;22.60;57.60;;;;;;5074980;28;19978;-59
2021/10/01 01:05:27;;;;;;;;;;;22.60;57.60;;;;;;5059950;28;20323;-59
2021/10/01 01:07:56;;;;;;;;;;;22.60;57.60;;;;;;5059428;28;19979;-59
2021/10/01 01:10:33;;;;;;;;;;;22.60;57.60;;;;;;5071998;28;19928;-59
2021/10/01 01:13:03;;;;;;;;;;;22.60;57.60;;;;;;5120577;27;19974;-59
2021/10/01 01:15:31;;;;;;;;;;;22.60;57.60;;;;;;5075041;28;20016;-60
2021/10/01 01:18:01;;;;;;;;;;;22.60;57.60;;;;;;5067310;28;20304;-58
2021/10/01 01:20:28;;;;;;;;;;;22.60;57.60;;;;;;5068214;28;19925;-59
2021/10/01 01:22:55;;;;;;;;;;;22.60;57.60;;;;;;5063696;28;19925;-59
2021/10/01 01:25:41;;;;;;;;;;;22.60;57.60;;;;;;5071849;28;20023;-60
2021/10/01 01:28:09;;;;;;;;;;;22.60;57.60;;;;;;5061860;28;19966;-60
2021/10/01 01:30:47;;;;;;;;;;;22.60;57.60;;;;;;5074386;28;19925;-59
2021/10/01 01:33:16;;;;;;;;;;;22.60;57.60;;;;;;5075832;28;19964;-60
2021/10/01 01:35:44;;;;;;;;;;;22.60;57.60;;;;;;5076051;28;19967;-59
2021/10/01 01:38:16;;;;;;;;;;;22.60;57.60;;;;;;5073939;28;19924;-60
2021/10/01 01:40:47;;;;;;;;;;;22.50;57.60;;;;;;5073564;28;19986;-59
2021/10/01 01:43:14;;;;;;;;;;;22.50;57.60;;;;;;5075116;28;20354;-59
2021/10/01 01:45:41;;;;;;;;;;;22.50;57.60;;;;;;5073918;28;19924;-59
2021/10/01 01:48:09;;;;;;;;;;;22.50;57.60;;;;;;5074124;28;19931;-59
2021/10/01 01:50:36;;;;;;;;;;;22.60;57.60;;;;;;5063638;28;19925;-58
2021/10/01 01:53:04;;;;;;;;;;;22.60;57.60;;;;;;5058636;28;20309;-58
2021/10/01 01:55:31;;;;;;;;;;;22.60;57.60;;;;;;5066035;28;19963;-60
2021/10/01 01:57:58;;;;;;;;;;;22.50;57.60;;;;;;5073662;28;19925;-58
2021/10/01 02:00:26;;;;;;;;;;;22.50;57.60;;;;;;5076377;28;20050;-60
2021/10/01 02:02:54;;;;;;;;;;;22.50;57.60;;;;;;5088866;28;19974;-59
2021/10/01 02:05:22;;;;;;;;;;;22.50;57.50;;;;;;5074986;28;19985;-58
2021/10/01 02:07:50;;;;;;;;;;;22.50;57.50;;;;;;5073465;28;19978;-59
2021/10/01 02:10:18;;;;;;;;;;;22.50;57.60;;;;;;5071852;28;19978;-59
2021/10/01 02:12:46;;;;;;;;;;;22.50;57.50;;;;;;5073526;28;19975;-60
2021/10/01 02:15:14;;;;;;;;;;;22.50;57.50;;;;;;5076241;28;20012;-59
2021/10/01 02:17:42;;;;;;;;;;;22.50;57.50;;;;;;5062698;28;20408;-60
2021/10/01 02:20:10;;;;;;;;;;;22.50;57.50;;;;;;5065916;28;20058;-60
2021/10/01 02:22:37;;;;;;;;;;;22.50;57.50;;;;;;5066375;28;19972;-59
2021/10/01 02:25:05;;;;;;;;;;;22.50;57.50;;;;;;5062971;28;20012;-60
2021/10/01 02:27:38;;;;;;;;;;;22.50;57.50;;;;;;5073559;28;19924;-60
2021/10/01 02:30:09;;;;;;;;;;;22.50;57.50;;;;;;5074539;28;19954;-59
2021/10/01 02:32:48;;;;;;;;;;;22.50;57.50;;;;;;5073221;28;19928;-59
2021/10/01 02:35:15;;;;;;;;;;;22.50;57.50;;;;;;5073208;28;19968;-59
2021/10/01 02:37:42;;;;;;;;;;;22.50;57.50;;;;;;5069716;28;19960;-60
2021/10/01 02:40:09;;;;;;;;;;;22.50;57.50;;;;;;5072467;28;19964;-59
2021/10/01 02:42:36;;;;;;;;;;;22.50;57.50;;;;;;5072141;28;19978;-59
2021/10/01 02:45:04;;;;;;;;;;;22.50;57.50;;;;;;5073450;28;20334;-59
2021/10/01 02:47:32;;;;;;;;;;;22.50;57.50;;;;;;5074142;28;20051;-59
2021/10/01 02:50:02;;;;;;;;;;;22.50;57.50;;;;;;5072922;28;20299;-60
2021/10/01 02:52:34;;;;;;;;;;;22.50;57.50;;;;;;5074443;28;19960;-59
2021/10/01 02:55:05;;;;;;;;;;;22.50;57.50;;;;;;5071711;28;19924;-58
2021/10/01 02:57:39;;;;;;;;;;;22.50;57.50;;;;;;5072723;28;20293;-58
2021/10/01 03:00:06;;;;;;;;;;;22.50;57.50;;;;;;5072929;28;19928;-59
2021/10/01 03:02:34;;;;;;;;;;;22.50;57.50;;;;;;5073913;28;20441;-60
2021/10/01 03:05:02;;;;;;;;;;;22.50;57.50;;;;;;5071979;28;19931;-59
2021/10/01 03:07:33;;;;;;;;;;;22.50;57.50;;;;;;5055519;28;21579;-58
2021/10/01 03:10:05;;;;;;;;;;;22.50;57.50;;;;;;5071923;28;19974;-60
2021/10/01 03:12:36;;;;;;;;;;;22.50;57.50;;;;;;5055405;28;19990;-58
2021/10/01 03:15:07;;;;;;;;;;;22.50;57.50;;;;;;5088409;28;19931;-59
2021/10/01 03:17:35;;;;;;;;;;;22.50;57.50;;;;;;5057490;28;19925;-58
2021/10/01 03:20:02;;;;;;;;;;;22.50;57.40;;;;;;5071278;28;20416;-58
2021/10/01 03:22:33;;;;;;;;;;;22.50;57.40;;;;;;5061641;28;19929;-60
2021/10/01 03:25:00;;;;;;;;;;;22.50;57.50;;;;;;5058239;28;20508;-59
2021/10/01 03:27:28;;;;;;;;;;;22.50;57.40;;;;;;5058154;28;19975;-59
2021/10/01 03:29:58;;;;;;;;;;;22.50;57.40;;;;;;5058080;28;20015;-59
2021/10/01 03:32:26;;;;;;;;;;;22.50;57.40;;;;;;5061937;28;19975;-59
2021/10/01 03:34:53;;;;;;;;;;;22.50;57.40;;;;;;5072308;28;19970;-59
2021/10/01 03:37:21;;;;;;;;;;;22.50;57.50;;;;;;5073841;28;19925;-59
2021/10/01 03:40:00;;;;;;;;;;;22.50;57.40;;;;;;5054839;28;19924;-59
2021/10/01 03:42:30;;;;;;;;;;;22.50;57.50;;;;;;5057048;28;20404;-59
2021/10/01 03:44:57;;;;;;;;;;;22.50;57.40;;;;;;5054408;28;19925;-58
2021/10/01 03:47:24;;;;;;;;;;;22.50;57.40;;;;;;5072114;28;19931;-59
2021/10/01 03:49:51;;;;;;;;;;;22.50;58.00;;;;;;5073151;28;19970;-59
2021/10/01 03:52:18;;;;;;;;;;;22.50;57.40;;;;;;5061566;28;19925;-60
2021/10/01 03:54:48;;;;;;;;;;;22.50;57.50;;;;;;5056338;28;20036;-59
2021/10/01 03:57:15;;;;;;;;;;;22.50;57.40;;;;;;5056018;28;19932;-59
2021/10/01 03:59:42;;;;;;;;;;;22.50;57.40;;;;;;5057735;28;20015;-59
2021/10/01 04:02:09;;;;;;;;;;;22.50;57.40;;;;;;5056756;28;20035;-60
2021/10/01 04:04:36;;;;;;;;;;;22.50;57.40;;;;;;5058412;28;20015;-60
2021/10/01 04:07:04;;;;;;;;;;;22.50;57.40;;;;;;5072958;28;19970;-60
2021/10/01 04:09:31;;;;;;;;;;;22.50;57.40;;;;;;5056081;28;20304;-59
2021/10/01 04:11:58;;;;;;;;;;;22.50;57.40;;;;;;5122589;28;19928;-59
2021/10/01 04:14:25;;;;;;;;;;;22.50;57.40;;;;;;5056480;28;19925;-59
2021/10/01 04:16:52;;;;;;;;;;;22.50;57.40;;;;;;5070815;28;20352;-59
2021/10/01 04:19:20;;;;;;;;;;;22.50;57.30;;;;;;5069680;28;20277;-59
2021/10/01 04:22:03;;;;;;;;;;;22.50;57.40;;;;;;5071623;28;19929;-60
2021/10/01 04:24:30;;;;;;;;;;;22.50;57.30;;;;;;5070818;28;19974;-60
2021/10/01 04:26:57;;;;;;;;;;;22.50;57.40;;;;;;5076548;28;19931;-59
2021/10/01 04:29:24;;;;;;;;;;;22.50;57.30;;;;;;5075375;28;19979;-60
2021/10/01 04:31:51;;;;;;;;;;;22.50;57.30;;;;;;5071558;28;19924;-60
2021/10/01 04:34:18;;;;;;;;;;;22.50;57.40;;;;;;5062058;28;19924;-59
2021/10/01 04:36:45;;;;;;;;;;;22.50;57.30;;;;;;5074555;28;19924;-59
2021/10/01 04:39:13;;;;;;;;;;;22.50;57.40;;;;;;5060774;28;20015;-60
2021/10/01 04:41:41;;;;;;;;;;;22.50;57.30;;;;;;5073593;28;20392;-59
2021/10/01 04:44:09;;;;;;;;;;;22.50;57.30;;;;;;5075435;28;19925;-59
2021/10/01 04:46:36;;;;;;;;;;;22.50;57.30;;;;;;5073995;28;20404;-60
2021/10/01 04:49:03;;;;;;;;;;;22.50;57.30;;;;;;5108373;27;20007;-59
2021/10/01 04:51:30;;;;;;;;;;;22.50;57.20;;;;;;5074984;28;19924;-59
2021/10/01 04:53:57;;;;;;;;;;;22.50;57.20;;;;;;5073835;28;20322;-59
2021/10/01 04:56:24;;;;;;;;;;;22.50;57.20;;;;;;5074694;28;19925;-59
2021/10/01 04:58:51;;;;;;;;;;;22.50;57.20;;;;;;5075185;28;20288;-60
2021/10/01 05:01:20;;;;;;;;;;;22.50;57.20;;;;;;5074085;28;19924;-59
2021/10/01 05:03:48;;;;;;;;;;;22.50;57.20;;;;;;5074723;28;19928;-59
2021/10/01 05:06:15;;;;;;;;;;;22.50;57.20;;;;;;5059170;28;19978;-59
2021/10/01 05:08:42;;;;;;;;;;;22.50;57.20;;;;;;5074598;28;20425;-59
2021/10/01 05:11:09;;;;;;;;;;;22.50;57.10;;;;;;5074899;28;19947;-60
2021/10/01 05:13:37;;;;;;;;;;;22.50;57.10;;;;;;5073777;28;19974;-59
2021/10/01 05:16:07;;;;;;;;;;;22.50;57.20;;;;;;5073843;28;19947;-59
2021/10/01 05:18:34;;;;;;;;;;;22.50;57.10;;;;;;5074692;28;19928;-58
2021/10/01 05:21:04;;;;;;;;;;;22.50;57.10;;;;;;5075120;28;19932;-59
2021/10/01 05:23:31;;;;;;;;;;;22.50;57.10;;;;;;5074426;28;19924;-59
2021/10/01 05:25:59;;;;;;;;;;;22.50;57.00;;;;;;5074120;28;19939;-61
2021/10/01 05:28:26;;;;;;;;;;;22.50;57.00;;;;;;5075664;28;19939;-59
2021/10/01 05:30:53;;;;;;;;;;;22.50;57.00;;;;;;5076922;28;19955;-60
2021/10/01 05:33:20;;;;;;;;;;;22.50;57.00;;;;;;5075457;28;19946;-59
2021/10/01 05:35:47;;;;;;;;;;;22.50;57.00;;;;;;5075282;28;19924;-59
2021/10/01 05:38:15;;;;;;;;;;;22.50;57.00;;;;;;5056383;28;19933;-60
2021/10/01 05:40:42;;;;;;;;;;;22.50;56.90;;;;;;5075248;28;19924;-59
2021/10/01 05:43:10;;;;;;;;;;;22.50;56.90;;;;;;5106451;28;19929;-59
2021/10/01 05:45:39;;;;;;;;;;;22.50;56.90;;;;;;5072913;28;20007;-59
2021/10/01 05:48:08;;;;;;;;;;;22.60;57.00;;;;;;5074562;28;20017;-60
2021/10/01 05:50:40;;;;;;;;;;;22.60;56.90;;;;;;5075266;28;19924;-59
2021/10/01 05:53:14;;;;;;;;;;;22.60;56.90;;;;;;5080552;28;19924;-60
2021/10/01 05:55:41;;;;;;;;;;;22.60;56.80;;;;;;5078797;28;20303;-60
2021/10/01 05:58:09;;;;;;;;;;;22.60;56.80;;;;;;5059947;28;19924;-60
2021/10/01 06:00:36;;;;;;;;;;;22.60;56.80;;;;;;5058425;28;19932;-61
2021/10/01 06:03:03;;;;;;;;;;;22.60;56.80;;;;;;5057704;28;19924;-59
2021/10/01 06:05:30;;;;;;;;;;;22.60;56.80;;;;;;5055939;28;19931;-58
2021/10/01 06:07:57;;;;;;;;;;;22.60;56.80;;;;;;5056989;28;19928;-59
2021/10/01 06:10:24;;;;;;;;;;;22.60;56.80;;;;;;5059826;28;19929;-59
2021/10/01 06:12:51;;;;;;;;;;;22.60;56.70;;;;;;5071246;28;20011;-59
2021/10/01 06:15:18;;;;;;;;;;;22.60;56.70;;;;;;5073506;28;19971;-60
2021/10/01 06:17:45;;;;;;;;;;;22.60;56.70;;;;;;5072102;28;19925;-59
2021/10/01 06:20:12;;;;;;;;;;;22.60;56.70;;;;;;5074903;28;20015;-58
2021/10/01 06:22:39;;;;;;;;;;;22.70;56.80;;;;;;5068640;28;19932;-60
2021/10/01 06:25:06;;;;;;;;;;;22.70;56.70;;;;;;5060636;28;20320;-61
2021/10/01 06:27:33;;;;;;;;;;;22.70;56.70;;;;;;5073212;28;19924;-59
2021/10/01 06:30:00;;;;;;;;;;;22.70;56.60;;;;;;5074492;28;20304;-59
2021/10/01 06:32:32;;;;;;;;;;;22.70;56.60;;;;;;5074022;28;19924;-59
2021/10/01 06:34:59;;;;;;;;;;;22.70;56.60;;;;;;5055946;28;19929;-59
2021/10/01 06:37:26;;;;;;;;;;;22.70;56.50;;;;;;5072128;28;20380;-60
2021/10/01 06:39:53;;;;;;;;;;;22.70;56.50;;;;;;5059984;28;20332;-60
2021/10/01 06:42:20;;;;;;;;;;;22.70;56.40;;;;;;5068978;28;19978;-60
2021/10/01 06:44:54;;;;;;;;;;;22.70;56.40;;;;;;5074248;28;20415;-59
2021/10/01 06:50:08;;;;;;;;;;;22.70;56.40;;;;;;5087154;28;20384;-57
2021/10/01 07:36:45;;;;;;;;;;;22.90;56.00;;;;;;5071081;28;20490;-59
2021/10/01 07:45:09;;;;;;;;;;;22.90;55.90;;;;;;5072229;28;19932;-59
2021/10/01 08:18:27;;;;;;;;;;;22.90;55.90;;;;;;5038965;28;19988;-59
2021/10/01 08:20:54;;;;;;;;;;;22.90;55.90;;;;;;5031345;28;19932;-60
2021/10/01 08:23:22;;;;;;;;;;;22.90;56.00;;;;;;5013348;28;19959;-60
2021/10/01 08:25:49;;;;;;;;;;;22.90;56.00;;;;;;5029682;28;20381;-60
2021/10/01 08:28:17;;;;;;;;;;;22.90;56.10;;;;;;5014040;28;19964;-59
2021/10/01 08:30:44;;;;;;;;;;;22.90;56.00;;;;;;5044084;28;20296;-59
2021/10/01 08:33:11;;;;;;;;;;;22.90;56.00;;;;;;5044567;28;20002;-59
2021/10/01 08:35:38;;;;;;;;;;;22.90;56.10;;;;;;5035708;28;19925;-58
2021/10/01 08:38:05;;;;;;;;;;;22.90;56.10;;;;;;5029238;28;19929;-59
2021/10/01 08:40:32;;;;;;;;;;;22.90;56.10;;;;;;5029166;28;19964;-59
2021/10/01 08:42:59;;;;;;;;;;;22.90;56.10;;;;;;5027188;28;19929;-59
2021/10/01 08:45:27;;;;;;;;;;;22.90;56.10;;;;;;5017347;28;20460;-58
2021/10/01 08:47:57;;;;;;;;;;;22.90;56.10;;;;;;5028115;28;20495;-58
2021/10/01 08:50:26;;;;;;;;;;;22.90;56.10;;;;;;5031583;28;20318;-58
2021/10/01 08:52:53;;;;;;;;;;;23.00;56.10;;;;;;5010908;28;19933;-59
2021/10/01 08:55:21;;;;;;;;;;;23.00;56.10;;;;;;5046380;28;20011;-58
2021/10/01 08:57:48;;;;;;;;;;;23.00;56.10;;;;;;5071019;28;20435;-58
2021/10/01 09:00:16;;;;;;;;;;;23.00;56.10;;;;;;5072573;28;19959;-60
2021/10/01 09:02:44;;;;;;;;;;;23.00;56.20;;;;;;5072782;28;19925;-58
2021/10/01 09:05:11;;;;;;;;;;;23.00;56.20;;;;;;5071391;28;19932;-60
2021/10/01 09:07:38;;;;;;;;;;;23.00;56.20;;;;;;5072103;28;20468;-59
2021/10/01 09:10:10;;;;;;;;;;;23.00;56.20;;;;;;5106008;28;20368;-59
2021/10/01 09:12:37;;;;;;;;;;;23.00;56.20;;;;;;5070429;28;19936;-59
2021/10/01 09:15:05;;;;;;;;;;;23.00;56.20;;;;;;5061354;28;19932;-60
2021/10/01 09:17:33;;;;;;;;;;;23.00;56.20;;;;;;5070921;28;20315;-59
2021/10/01 09:20:01;;;;;;;;;;;23.00;56.10;;;;;;5057598;28;19925;-58
2021/10/01 09:22:29;;;;;;;;;;;23.00;56.20;;;;;;5074586;28;19925;-59
2021/10/01 09:25:14;;;;;;;;;;;23.00;56.10;;;;;;5059013;28;19975;-58
2021/10/01 09:27:42;;;;;;;;;;;23.00;56.10;;;;;;5056638;28;20388;-58
2021/10/01 09:30:10;;;;;;;;;;;23.00;56.10;;;;;;5060703;28;19928;-59
2021/10/01 09:32:39;;;;;;;;;;;23.00;56.10;;;;;;5073398;28;19925;-57
2021/10/01 09:35:24;;;;;;;;;;;23.00;56.10;;;;;;5075325;28;19972;-59
2021/10/01 09:38:02;;;;;;;;;;;23.00;56.10;;;;;;5074432;28;20007;-58
2021/10/01 09:40:29;;;;;;;;;;;23.00;56.10;;;;;;5074547;28;20426;-58
2021/10/01 09:42:56;;;;;;;;;;;23.00;56.10;;;;;;5074550;28;19982;-58
2021/10/01 09:45:23;;;;;;;;;;;23.00;56.10;;;;;;5074177;28;19968;-59
2021/10/01 09:47:50;;;;;;;;;;;23.00;56.10;;;;;;5074168;28;19972;-58
2021/10/01 09:50:27;;;;;;;;;;;23.00;56.10;;;;;;5074094;28;20011;-58
2021/10/01 09:52:56;;;;;;;;;;;23.00;56.10;;;;;;5074312;28;19947;-58
2021/10/01 09:55:31;;;;;;;;;;;23.00;56.10;;;;;;5090524;28;19930;-59
2021/10/01 09:58:06;;;;;;;;;;;23.00;56.10;;;;;;5073700;28;19935;-59
2021/10/01 10:00:39;;;;;;;;;;;23.10;56.10;;;;;;5075187;28;19932;-58
2021/10/01 10:03:08;;;;;;;;;;;23.10;56.10;;;;;;5073644;28;20369;-58
2021/10/01 10:05:54;;;;;;;;;;;23.10;56.10;;;;;;5073840;28;19936;-59
2021/10/01 10:08:30;;;;;;;;;;;23.10;56.10;;;;;;5055481;28;20438;-60
2021/10/01 10:10:58;;;;;;;;;;;23.10;56.10;;;;;;5072280;28;19924;-59
2021/10/01 10:13:44;;;;;;;;;;;23.10;56.10;;;;;;5076237;28;19929;-58
2021/10/01 10:16:22;;;;;;;;;;;23.10;56.10;;;;;;5073092;28;19925;-59
2021/10/01 10:18:51;;;;;;;;;;;23.10;56.10;;;;;;5073316;28;19925;-60
2021/10/01 10:21:19;;;;;;;;;;;23.10;56.10;;;;;;5073793;28;19939;-59
2021/10/01 10:23:46;;;;;;;;;;;23.10;56.70;;;;;;5072135;28;20510;-59
2021/10/01 10:26:13;;;;;;;;;;;23.10;56.20;;;;;;5073556;28;19924;-58
2021/10/01 10:28:41;;;;;;;;;;;23.10;56.20;;;;;;5073810;28;20000;-58
2021/10/01 10:31:10;;;;;;;;;;;23.10;56.20;;;;;;5072685;28;19947;-58
2021/10/01 10:33:45;;;;;;;;;;;23.10;56.20;;;;;;5073280;28;19924;-59
2021/10/01 10:36:27;;;;;;;;;;;23.10;56.20;;;;;;5073332;28;19968;-59
2021/10/01 10:38:58;;;;;;;;;;;23.10;56.20;;;;;;5073331;28;19929;-59
2021/10/01 10:41:26;;;;;;;;;;;23.10;56.20;;;;;;5074190;28;19928;-59
2021/10/01 10:43:54;;;;;;;;;;;23.10;56.20;;;;;;5074439;28;19931;-59
2021/10/01 10:46:36;;;;;;;;;;;23.10;56.20;;;;;;5074378;28;19924;-58
2021/10/01 10:49:22;;;;;;;;;;;23.10;56.20;;;;;;5074164;28;19924;-59
2021/10/01 10:52:10;;;;;;;;;;;23.10;56.20;;;;;;5055628;28;19979;-59
2021/10/01 10:54:43;;;;;;;;;;;23.10;56.20;;;;;;5056414;28;20016;-59
2021/10/01 10:57:16;;;;;;;;;;;23.10;56.20;;;;;;5091774;28;19924;-59
2021/10/01 10:59:47;;;;;;;;;;;23.10;56.20;;;;;;5090754;28;19924;-60
2021/10/01 11:02:30;;;;;;;;;;;23.10;56.20;;;;;;5072264;28;20011;-59
2021/10/01 11:05:16;;;;;;;;;;;23.10;56.20;;;;;;5055398;28;20339;-58
2021/10/01 11:07:46;;;;;;;;;;;23.10;56.20;;;;;;5071836;28;19928;-59
2021/10/01 11:10:32;;;;;;;;;;;23.10;56.30;;;;;;5073102;28;19924;-59
2021/10/01 11:13:17;;;;;;;;;;;23.10;56.30;;;;;;5072709;28;19972;-59
2021/10/01 11:16:03;;;;;;;;;;;23.10;56.40;;;;;;5055932;28;19925;-56
2021/10/01 11:18:36;;;;;;;;;;;23.10;56.30;;;;;;5056401;28;20015;-59
2021/10/01 11:23:56;;;;;;;;;;;23.10;56.40;;;;;;5072234;28;19932;-59
2021/10/01 11:26:30;;;;;;;;;;;23.10;56.30;;;;;;5087438;28;19928;-59
2021/10/01 11:28:57;;;;;;;;;;;23.10;56.30;;;;;;5087931;28;19974;-60
2021/10/01 11:31:34;;;;;;;;;;;23.10;56.30;;;;;;5074791;28;19932;-58
2021/10/01 11:34:01;;;;;;;;;;;23.10;56.30;;;;;;5072035;28;20437;-58
2021/10/01 11:36:28;;;;;;;;;;;23.10;56.40;;;;;;5081956;28;20268;-59
2021/10/01 11:39:06;;;;;;;;;;;23.10;56.30;;;;;;5087702;28;20355;-59
2021/10/01 11:41:38;;;;;;;;;;;23.10;56.40;;;;;;5073089;28;19960;-59
2021/10/01 11:44:06;;;;;;;;;;;23.10;56.40;;;;;;5057029;28;19964;-59
2021/10/01 11:46:36;;;;;;;;;;;23.10;56.40;;;;;;5066191;28;19924;-60
2021/10/01 11:49:07;;;;;;;;;;;23.10;56.40;;;;;;5084105;28;19924;-60
2021/10/01 11:51:35;;;;;;;;;;;23.10;56.40;;;;;;5056590;28;19964;-59
2021/10/01 11:54:06;;;;;;;;;;;23.10;56.40;;;;;;5055905;28;20284;-59
2021/10/01 11:56:34;;;;;;;;;;;23.10;56.40;;;;;;5055511;28;19975;-60
2021/10/01 11:59:01;;;;;;;;;;;23.10;56.40;;;;;;5059628;28;19947;-59
2021/10/01 12:01:28;;;;;;;;;;;23.10;56.40;;;;;;5056672;28;20388;-60
2021/10/01 12:03:57;;;;;;;;;;;23.10;56.40;;;;;;5071800;28;19951;-59
2021/10/01 12:06:30;;;;;;;;;;;23.20;56.40;;;;;;5083591;28;19969;-59
2021/10/01 12:08:57;;;;;;;;;;;23.20;56.40;;;;;;5075265;28;20007;-60
2021/10/01 12:11:25;;;;;;;;;;;23.20;56.40;;;;;;5073105;28;19932;-60
2021/10/01 12:13:52;;;;;;;;;;;23.20;56.40;;;;;;5066419;28;19929;-59
2021/10/01 12:16:20;;;;;;;;;;;23.20;56.40;;;;;;5060904;28;20411;-59
2021/10/01 12:18:55;;;;;;;;;;;23.20;56.30;;;;;;5071296;28;19990;-59
2021/10/01 12:21:23;;;;;;;;;;;23.20;56.40;;;;;;5071879;28;21314;-59
2021/10/01 12:23:55;;;;;;;;;;;23.20;56.40;;;;;;5073710;28;19951;-59
2021/10/01 12:26:27;;;;;;;;;;;23.20;56.40;;;;;;5071510;28;19939;-59
2021/10/01 12:28:54;;;;;;;;;;;23.20;56.40;;;;;;5054836;28;20296;-58
2021/10/01 12:31:21;;;;;;;;;;;23.20;56.30;;;;;;5072208;28;19924;-60
2021/10/01 12:33:48;;;;;;;;;;;23.20;56.30;;;;;;5071712;28;19950;-59
2021/10/01 12:36:16;;;;;;;;;;;23.20;56.30;;;;;;5072753;28;19925;-59
2021/10/01 12:38:44;;;;;;;;;;;23.20;56.30;;;;;;5061705;28;19993;-59
2021/10/01 12:41:12;;;;;;;;;;;23.20;56.30;;;;;;5066474;28;19972;-58
2021/10/01 12:43:43;;;;;;;;;;;23.20;56.20;;;;;;5072223;28;19971;-58
2021/10/01 12:46:11;;;;;;;;;;;23.20;56.20;;;;;;5072665;28;19932;-59
2021/10/01 12:48:38;;;;;;;;;;;23.20;56.20;;;;;;5074102;28;20335;-60
2021/10/01 12:51:21;;;;;;;;;;;23.20;56.20;;;;;;5074271;28;19925;-59
2021/10/01 12:53:47;;;;;;;;;;;23.20;56.20;;;;;;5075196;28;19972;-59
2021/10/01 12:56:18;;;;;;;;;;;23.30;56.20;;;;;;5073837;28;19968;-59
2021/10/01 12:58:45;;;;;;;;;;;23.30;56.20;;;;;;5058035;28;20370;-60
2021/10/01 13:01:18;;;;;;;;;;;23.30;56.20;;;;;;5077407;28;19974;-59
2021/10/01 13:03:47;;;;;;;;;;;23.30;56.20;;;;;;5074779;28;19924;-58
2021/10/01 13:06:30;;;;;;;;;;;23.30;56.10;;;;;;5075316;28;19925;-59
2021/10/01 13:08:57;;;;;;;;;;;23.30;56.10;;;;;;5058572;28;20344;-59
2021/10/01 13:11:24;;;;;;;;;;;23.30;56.00;;;;;;5074095;28;19925;-59
2021/10/01 13:13:51;;;;;;;;;;;23.30;56.10;;;;;;5075949;28;19974;-59
2021/10/01 13:16:24;;;;;;;;;;;23.30;56.00;;;;;;5076010;28;20269;-59
2021/10/01 13:19:04;;;;;;;;;;;23.30;56.00;;;;;;5067639;28;19932;-59
2021/10/01 13:21:31;;;;;;;;;;;23.30;56.10;;;;;;5074933;28;20402;-57
2021/10/01 13:23:59;;;;;;;;;;;23.30;56.00;;;;;;5079824;28;20339;-59
2021/10/01 13:26:26;;;;;;;;;;;23.30;56.00;;;;;;5064442;28;19925;-60
2021/10/01 13:28:55;;;;;;;;;;;23.30;56.00;;;;;;5076270;28;19978;-60
2021/10/01 13:31:23;;;;;;;;;;;23.30;56.00;;;;;;5091618;28;19924;-59
2021/10/01 13:33:54;;;;;;;;;;;23.30;56.10;;;;;;5058833;28;20030;-58
2021/10/01 13:36:21;;;;;;;;;;;23.30;56.00;;;;;;5056733;28;19925;-58
2021/10/01 13:38:48;;;;;;;;;;;23.30;56.00;;;;;;5073974;28;19928;-58
2021/10/01 13:41:16;;;;;;;;;;;23.30;56.00;;;;;;5073538;28;19925;-58
2021/10/01 13:43:43;;;;;;;;;;;23.30;56.10;;;;;;5074082;28;19970;-60
2021/10/01 13:46:12;;;;;;;;;;;23.30;56.00;;;;;;5063368;28;19931;-59
2021/10/01 13:48:39;;;;;;;;;;;23.30;56.00;;;;;;5067510;28;19928;-58
2021/10/01 13:51:07;;;;;;;;;;;23.30;56.00;;;;;;5079026;28;20422;-58
2021/10/01 13:53:34;;;;;;;;;;;23.30;56.00;;;;;;5070444;28;19925;-59
2021/10/01 13:56:02;;;;;;;;;;;23.30;56.00;;;;;;5062656;28;19967;-59
2021/10/01 13:58:29;;;;;;;;;;;23.30;56.00;;;;;;5072579;28;19970;-58
2021/10/01 14:00:56;;;;;;;;;;;23.30;56.70;;;;;;5057801;28;19925;-59
2021/10/01 14:03:24;;;;;;;;;;;23.30;56.10;;;;;;5074041;28;20016;-58
2021/10/01 14:05:51;;;;;;;;;;;23.30;56.10;;;;;;5074280;28;19925;-58
2021/10/01 14:08:19;;;;;;;;;;;23.30;56.20;;;;;;5090451;28;20003;-59
2021/10/01 14:10:46;;;;;;;;;;;23.30;56.20;;;;;;5064080;28;20432;-58
2021/10/01 14:13:14;;;;;;;;;;;23.30;56.20;;;;;;5058353;28;20406;-58
2021/10/01 14:15:42;;;;;;;;;;;23.30;56.20;;;;;;5058930;28;19924;-59
2021/10/01 14:18:10;;;;;;;;;;;23.30;56.20;;;;;;5058269;28;19924;-60
2021/10/01 14:20:38;;;;;;;;;;;23.30;56.10;;;;;;5058588;28;20281;-59
2021/10/01 14:23:05;;;;;;;;;;;23.30;56.20;;;;;;5058404;28;19925;-59
2021/10/01 14:25:35;;;;;;;;;;;23.30;56.20;;;;;;5061594;28;19925;-59
2021/10/01 14:28:03;;;;;;;;;;;23.30;56.20;;;;;;5074671;28;19928;-57
2021/10/01 14:30:31;;;;;;;;;;;23.30;56.20;;;;;;5056384;28;19986;-58
2021/10/01 14:32:59;;;;;;;;;;;23.30;56.20;;;;;;5073540;28;19974;-58
2021/10/01 14:35:39;;;;;;;;;;;23.30;56.20;;;;;;5072798;28;19963;-59
2021/10/01 14:38:07;;;;;;;;;;;23.30;56.20;;;;;;5058115;28;20361;-59
2021/10/01 14:40:36;;;;;;;;;;;23.30;56.20;;;;;;5074853;28;19931;-58
2021/10/01 14:43:23;;;;;;;;;;;23.30;56.20;;;;;;5073294;28;20007;-58
2021/10/01 14:45:51;;;;;;;;;;;23.30;56.20;;;;;;5073947;28;19925;-58
2021/10/01 14:48:19;;;;;;;;;;;23.30;56.30;;;;;;5074228;28;19960;-59
2021/10/01 14:50:46;;;;;;;;;;;23.30;56.30;;;;;;5074021;28;19929;-59
2021/10/01 14:53:13;;;;;;;;;;;23.30;56.30;;;;;;5071909;28;19928;-60
2021/10/01 14:55:40;;;;;;;;;;;23.30;56.30;;;;;;5073830;28;19924;-58
2021/10/01 14:58:07;;;;;;;;;;;23.30;56.20;;;;;;5073953;28;19936;-58
2021/10/01 15:00:34;;;;;;;;;;;23.30;56.20;;;;;;5074026;28;19979;-58
2021/10/01 15:03:03;;;;;;;;;;;23.30;56.20;;;;;;5074394;28;19924;-58
2021/10/01 15:05:31;;;;;;;;;;;23.30;56.40;;;;;;5073619;28;19925;-58
2021/10/01 15:07:58;;;;;;;;;;;23.30;56.40;;;;;;5072769;28;19936;-59
2021/10/01 15:10:27;;;;;;;;;;;23.30;56.40;;;;;;5069722;28;19967;-58
2021/10/01 15:12:55;;;;;;;;;;;23.20;56.40;;;;;;5073742;28;19925;-57
2021/10/01 15:15:36;;;;;;;;;;;23.20;56.30;;;;;;5060374;28;19929;-59
2021/10/01 15:18:03;;;;;;;;;;;23.20;56.40;;;;;;5067471;28;19932;-59
2021/10/01 15:20:31;;;;;;;;;;;23.20;56.40;;;;;;5064380;28;19979;-59
2021/10/01 15:22:57;;;;;;;;;;;23.20;56.40;;;;;;5063996;28;19979;-57
2021/10/01 15:25:24;;;;;;;;;;;23.20;56.40;;;;;;5070587;28;19936;-56
2021/10/01 15:27:51;;;;;;;;;;;23.20;56.40;;;;;;5072971;28;19925;-59
2021/10/01 15:30:20;;;;;;;;;;;23.20;56.40;;;;;;5072406;28;20334;-59
2021/10/01 15:32:47;;;;;;;;;;;23.20;56.40;;;;;;5073766;28;19931;-58
2021/10/01 15:35:18;;;;;;;;;;;23.20;56.40;;;;;;5073547;28;19932;-58
2021/10/01 15:37:47;;;;;;;;;;;23.20;56.40;;;;;;5071643;28;19977;-58
2021/10/01 15:40:16;;;;;;;;;;;23.20;56.50;;;;;;5071159;28;19968;-58
2021/10/01 15:42:44;;;;;;;;;;;23.20;56.50;;;;;;5071296;28;19947;-57
2021/10/01 15:45:12;;;;;;;;;;;23.20;56.50;;;;;;5074142;28;19925;-56
2021/10/01 15:47:39;;;;;;;;;;;23.20;56.60;;;;;;5070887;28;20292;-58
2021/10/01 15:50:07;;;;;;;;;;;23.20;56.70;;;;;;5074097;28;19978;-58
2021/10/01 15:52:35;;;;;;;;;;;23.20;56.70;;;;;;5072021;28;19924;-59
2021/10/01 15:55:02;;;;;;;;;;;23.20;56.70;;;;;;5071677;28;19973;-59